SEAL ISLAND AK US NWS current weather conditions

sailwx.info

Wind from 136 at 6 knots gusting 17

Air temperature 11.3° C
Dewpoint 9.2° C

Last reported at 2020-Sep-18 09:00 UTC.
Time now 2020-Sep-18 10:49 UTC

Location: N 60°25' W 147°24'.
View on Google Maps.

See reports from other nearby stations

  
Tides and Currents Weather Stations Pressure Air Temp Water Temp Dewpoint Dewpoint Depression Visibility Wind Speed Wind Dir Waves Ship Positions
date/time (UTC)wind fromknots sea level pressurealtimeterstation pressurevisibilityair tempwater tempwave heightnotes
2020-Sep-18 09:00 136 6 gusting 17 11.3
2020-Sep-18 08:00 099 13 gusting 17 11.8
2020-Sep-18 07:00 087 6 gusting 12 11.8
2020-Sep-18 06:00 093 6 gusting 8 11.6
2020-Sep-18 05:00 168 6 gusting 9 11.3
2020-Sep-18 04:00 174 8 gusting 12 11.5
2020-Sep-18 03:00 117 7 gusting 13 11.3
2020-Sep-18 02:00 079 2 gusting 16 11.0
2020-Sep-18 01:00 124 15 gusting 35 11.4
2020-Sep-18 00:00 104 26 gusting 37 11.4
2020-Sep-17 23:00 092 20 gusting 38 11.0
2020-Sep-17 22:00 097 22 gusting 38 11.0
2020-Sep-17 21:00 083 21 gusting 36 10.8
2020-Sep-17 20:00 083 21 gusting 34 10.7
2020-Sep-17 19:00 088 19 gusting 35 10.3
2020-Sep-17 18:00 083 20 gusting 33 10.3
2020-Sep-17 17:00 081 19 gusting 30 11.1
2020-Sep-17 16:00 073 19 gusting 28 10.5
2020-Sep-17 15:00 061 15 gusting 30 10.2
2020-Sep-17 14:00 083 17 gusting 28 10.3
2020-Sep-17 13:00 079 19 gusting 28 10.4
2020-Sep-17 12:00 086 16 gusting 27 10.8
2020-Sep-17 11:00 092 18 gusting 26 10.9
2020-Sep-17 10:00 089 16 gusting 25 10.9
2020-Sep-17 09:00 087 16 gusting 26 11.2
2020-Sep-17 08:00 079 18 gusting 26 11.2
2020-Sep-17 07:00 084 13 gusting 24 11.2
2020-Sep-17 06:00 086 13 gusting 21 11.4
2020-Sep-17 05:00 090 13 gusting 19 11.5
2020-Sep-17 04:00 082 9 gusting 19 11.9
2020-Sep-17 03:00 076 13 gusting 19 11.7
2020-Sep-17 02:00 086 11 gusting 18 11.9
2020-Sep-17 01:00 087 11 gusting 15 11.9
2020-Sep-17 00:00 088 10 gusting 14 11.8
2020-Sep-16 23:00 089 7 gusting 13 11.9
2020-Sep-16 22:00 060 8 gusting 11 11.9
2020-Sep-16 21:00 033 6 gusting 8 11.8
2020-Sep-16 20:00 030 6 gusting 10 11.9
2020-Sep-16 19:00 034 6 gusting 8 12.0
2020-Sep-16 18:00 040 5 gusting 7 11.8
2020-Sep-16 17:00 043 3 gusting 6 11.6
2020-Sep-16 16:00 043 5 gusting 7 11.6
2020-Sep-16 15:00 028 3 gusting 8 11.6
2020-Sep-16 14:00 027 6 gusting 8 11.5
2020-Sep-16 13:00 028 6 gusting 8 11.4
2020-Sep-16 12:00 032 7 gusting 9 11.4
2020-Sep-16 11:00 127 0 gusting 2 11.1